createdAt,value
2018-08-20T00:00:08.553Z,5.37
2018-08-20T00:02:38.523Z,5.50
2018-08-20T00:05:08.333Z,5.03
2018-08-20T00:07:37.389Z,5.60
2018-08-20T00:10:09.541Z,6.20
2018-08-20T00:12:39.017Z,5.47
2018-08-20T00:15:08.374Z,5.30
2018-08-20T00:17:37.765Z,5.53
2018-08-20T00:20:08.153Z,5.80
2018-08-20T00:22:37.469Z,5.80
2018-08-20T00:25:14.986Z,5.83
2018-08-20T00:27:44.901Z,5.53
2018-08-20T00:30:16.540Z,5.50
2018-08-20T00:32:46.994Z,5.53
2018-08-20T00:35:18.677Z,5.40
2018-08-20T00:37:50.161Z,5.07
2018-08-20T00:40:32.161Z,4.90
2018-08-20T00:43:01.493Z,5.70
2018-08-20T00:45:30.886Z,4.70
2018-08-20T00:48:00.298Z,5.00
2018-08-20T00:50:42.200Z,5.67
2018-08-20T00:53:12.844Z,5.47
2018-08-20T00:55:42.297Z,4.90
2018-08-20T00:58:11.738Z,4.77
2018-08-20T01:00:45.213Z,5.47
2018-08-20T01:03:14.622Z,5.60
2018-08-20T01:05:43.961Z,6.30
2018-08-20T01:08:13.365Z,5.87
2018-08-20T01:10:50.081Z,5.50
2018-08-20T01:13:19.508Z,5.40
2018-08-20T01:15:48.844Z,5.07
2018-08-20T01:18:18.217Z,5.90
2018-08-20T01:20:47.621Z,5.43
2018-08-20T01:23:16.969Z,5.27
2018-08-20T01:25:46.425Z,5.30
2018-08-20T01:28:15.874Z,5.47
2018-08-20T01:30:56.061Z,4.90
2018-08-20T01:33:25.411Z,6.00
2018-08-20T01:35:54.789Z,5.40
2018-08-20T01:38:24.141Z,5.53
2018-08-20T01:40:54.681Z,5.87
2018-08-20T01:43:24.173Z,5.70
2018-08-20T01:45:53.323Z,5.77
2018-08-20T01:48:22.658Z,5.90
2018-08-20T01:51:06.632Z,5.73
2018-08-20T01:53:35.873Z,5.67
2018-08-20T01:56:05.245Z,4.77
2018-08-20T01:58:34.697Z,5.20
2018-08-20T02:01:07.517Z,4.80
2018-08-20T02:03:36.925Z,5.73
2018-08-20T02:06:06.120Z,5.47
2018-08-20T02:08:35.245Z,5.60
2018-08-20T02:11:11.692Z,4.97
2018-08-20T02:13:40.776Z,5.57
2018-08-20T02:16:10.624Z,5.40
2018-08-20T02:18:39.784Z,5.23
2018-08-20T02:21:09.996Z,5.60
2018-08-20T02:23:39.106Z,5.50
2018-08-20T02:26:08.284Z,5.03
2018-08-20T02:28:37.461Z,5.10
2018-08-20T02:31:07.789Z,5.23
2018-08-20T02:33:37.229Z,5.00
2018-08-20T02:36:06.656Z,4.90
2018-08-20T02:38:36.017Z,5.33
2018-08-20T02:41:19.356Z,5.23
2018-08-20T02:43:48.765Z,5.27
2018-08-20T02:46:28.041Z,4.83
2018-08-20T02:48:57.489Z,5.07
2018-08-20T02:51:27.817Z,5.87
2018-08-20T02:53:57.153Z,5.10
2018-08-20T02:56:26.597Z,5.47
2018-08-20T02:58:56.037Z,5.17
2018-08-20T03:01:26.401Z,6.00
2018-08-20T03:03:55.738Z,5.63
2018-08-20T03:06:25.085Z,6.03
2018-08-20T03:08:54.542Z,6.20
2018-08-20T03:11:28.721Z,5.60
2018-08-20T03:13:58.050Z,6.77
2018-08-20T03:16:27.388Z,5.27
2018-08-20T03:18:56.750Z,5.73
2018-08-20T03:21:39.773Z,6.10
2018-08-20T03:24:09.116Z,6.33
2018-08-20T03:26:38.490Z,6.03
2018-08-20T03:29:07.857Z,5.50
2018-08-20T03:31:37.478Z,6.57
2018-08-20T03:34:07.176Z,5.07
2018-08-20T03:36:36.469Z,5.33
2018-08-20T03:39:08.065Z,6.30
2018-08-20T03:41:38.454Z,5.67
2018-08-20T03:44:07.821Z,6.10
2018-08-20T03:46:37.229Z,5.27
2018-08-20T03:49:07.137Z,5.53
2018-08-20T03:51:38.573Z,6.00
2018-08-20T03:54:08.069Z,5.37
2018-08-20T03:56:37.500Z,6.57
2018-08-20T03:59:06.973Z,5.73
2018-08-20T04:01:36.437Z,6.10
2018-08-20T04:04:05.825Z,6.27
2018-08-20T04:06:35.190Z,5.90
2018-08-20T04:09:05.305Z,5.87
2018-08-20T04:11:36.344Z,5.77
2018-08-20T04:14:05.706Z,6.60
2018-08-20T04:16:37.160Z,6.00
2018-08-20T04:19:08.169Z,6.40
2018-08-20T04:21:38.641Z,6.60
2018-08-20T04:24:07.993Z,7.10
2018-08-20T04:26:37.373Z,6.23
2018-08-20T04:29:06.853Z,6.80
2018-08-20T04:32:20.297Z,6.30
2018-08-20T04:34:49.733Z,6.17
2018-08-20T04:37:19.098Z,5.53
2018-08-20T04:39:48.513Z,23.67
2018-08-20T04:42:18.876Z,22.83
2018-08-20T04:44:48.146Z,10.73
2018-08-20T04:47:17.482Z,9.10
2018-08-20T04:49:46.718Z,8.30
2018-08-20T04:52:38.082Z,6.57
2018-08-20T04:55:07.193Z,6.23
2018-08-20T04:57:36.461Z,6.70
2018-08-20T05:00:08.661Z,6.67
2018-08-20T05:02:38.054Z,6.70
2018-08-20T05:05:07.636Z,6.07
2018-08-20T05:07:37.057Z,6.23
2018-08-20T05:10:06.794Z,6.10
2018-08-20T05:12:36.133Z,6.77
2018-08-20T05:15:05.738Z,6.30
2018-08-20T05:17:35.130Z,6.70
2018-08-20T05:20:04.761Z,6.30
2018-08-20T05:22:36.252Z,6.93
2018-08-20T05:25:06.332Z,7.27
2018-08-20T05:27:35.710Z,6.60
2018-08-20T05:30:06.258Z,6.37
2018-08-20T05:32:35.654Z,7.17
2018-08-20T05:35:05.853Z,6.97
2018-08-20T05:37:35.413Z,7.07
2018-08-20T05:40:04.588Z,6.90
2018-08-20T05:42:33.808Z,7.13
2018-08-20T05:45:02.904Z,7.40
2018-08-20T05:47:32.043Z,7.57
2018-08-20T05:50:01.100Z,6.93
2018-08-20T05:52:35.465Z,7.07
2018-08-20T05:55:04.477Z,7.10
2018-08-20T05:57:33.633Z,7.90
2018-08-20T06:00:02.701Z,6.60
2018-08-20T06:02:39.045Z,7.27
2018-08-20T06:05:08.125Z,7.20
2018-08-20T06:07:37.213Z,6.33
2018-08-20T06:10:07.138Z,7.67
2018-08-20T06:12:36.780Z,6.10
2018-08-20T06:15:10.711Z,7.10
2018-08-20T06:17:40.212Z,6.90
2018-08-20T06:20:17.090Z,7.13
2018-08-20T06:22:46.786Z,8.10
2018-08-20T06:25:16.869Z,6.30
2018-08-20T06:27:46.306Z,6.50
2018-08-20T06:30:18.033Z,6.30
2018-08-20T06:32:47.778Z,6.13
2018-08-20T06:35:17.188Z,6.37
2018-08-20T06:37:46.632Z,6.20
2018-08-20T06:40:15.999Z,5.97
2018-08-20T06:42:45.366Z,6.40
2018-08-20T06:45:16.482Z,5.97
2018-08-20T06:47:46.713Z,5.40
2018-08-20T06:50:16.540Z,5.70
2018-08-20T06:52:46.525Z,5.43
2018-08-20T06:55:16.695Z,5.63
2018-08-20T06:57:47.101Z,5.73
2018-08-20T07:00:18.540Z,5.83
2018-08-20T07:02:47.861Z,5.17
2018-08-20T07:05:17.253Z,5.80
2018-08-20T07:07:46.726Z,5.30
2018-08-20T07:10:15.818Z,5.60
2018-08-20T07:12:45.235Z,5.10
2018-08-20T07:15:15.599Z,5.20
2018-08-20T07:17:45.309Z,5.00
2018-08-20T07:20:16.351Z,5.27
2018-08-20T07:22:45.765Z,5.53
2018-08-20T07:25:15.193Z,5.17
2018-08-20T07:27:44.626Z,5.67
2018-08-20T07:30:13.969Z,4.70
2018-08-20T07:32:43.397Z,4.58
2018-08-20T07:35:12.794Z,5.10
2018-08-20T07:37:42.202Z,5.33
2018-08-20T07:40:11.635Z,4.60
2018-08-20T07:42:40.993Z,4.87
2018-08-20T07:45:10.335Z,5.33
2018-08-20T07:47:39.665Z,5.47
2018-08-20T07:50:09.865Z,5.33
2018-08-20T07:52:39.313Z,5.25
2018-08-20T07:55:08.773Z,5.40
2018-08-20T07:57:38.218Z,4.75
2018-08-20T08:00:09.437Z,5.65
2018-08-20T08:02:39.269Z,5.80
2018-08-20T08:05:10.865Z,5.22
2018-08-20T08:07:40.597Z,5.80
2018-08-20T08:10:14.000Z,5.67
2018-08-20T08:12:43.382Z,5.55
2018-08-20T08:15:15.130Z,5.83
2018-08-20T08:17:45.637Z,4.95
2018-08-20T08:20:18.508Z,5.22
2018-08-20T08:22:47.864Z,5.35
2018-08-20T08:25:17.245Z,5.30
2018-08-20T08:27:46.535Z,5.00
2018-08-20T08:30:19.149Z,5.50
2018-08-20T08:32:48.589Z,5.92
2018-08-20T08:35:17.946Z,5.70
2018-08-20T08:37:47.345Z,5.20
2018-08-20T08:40:18.713Z,5.12
2018-08-20T08:42:48.231Z,5.33
2018-08-20T08:45:18.817Z,5.72
2018-08-20T08:47:48.289Z,5.22
2018-08-20T08:50:18.177Z,5.67
2018-08-20T08:52:47.754Z,5.53
2018-08-20T08:55:17.141Z,5.42
2018-08-20T08:57:46.473Z,5.25
2018-08-20T09:00:18.440Z,5.42
2018-08-20T09:02:47.817Z,5.40
2018-08-20T09:05:16.888Z,5.80
2018-08-20T09:07:45.772Z,5.22
2018-08-20T09:10:14.888Z,5.78
2018-08-20T09:12:43.972Z,5.72
2018-08-20T09:15:15.592Z,5.65
2018-08-20T09:17:45.121Z,5.10
2018-08-20T09:20:18.666Z,5.90
2018-08-20T09:22:47.821Z,5.37
2018-08-20T09:25:16.945Z,5.20
2018-08-20T09:27:46.064Z,4.97
2018-08-20T09:30:23.369Z,5.50
2018-08-20T09:32:52.512Z,5.60
2018-08-20T09:35:21.680Z,5.35
2018-08-20T09:37:50.824Z,5.53
2018-08-20T09:40:21.034Z,5.95
2018-08-20T09:42:50.125Z,5.65
2018-08-20T09:45:19.505Z,5.58
2018-08-20T09:47:48.865Z,5.83
2018-08-20T09:50:18.181Z,6.15
2018-08-20T09:52:47.557Z,7.05
2018-08-20T09:55:17.001Z,6.17
2018-08-20T09:57:46.333Z,6.12
2018-08-20T10:00:26.187Z,6.50
2018-08-20T10:02:55.574Z,6.60
2018-08-20T10:05:25.089Z,5.90
2018-08-20T10:07:54.509Z,6.10
2018-08-20T10:10:26.065Z,5.60
2018-08-20T10:12:55.462Z,5.87
2018-08-20T10:15:24.869Z,6.12
2018-08-20T10:17:54.378Z,6.80
2018-08-20T10:20:27.110Z,6.40
2018-08-20T10:22:56.594Z,5.97
2018-08-20T10:25:26.100Z,5.62
2018-08-20T10:27:55.473Z,6.10
2018-08-20T10:30:28.070Z,6.37
2018-08-20T10:32:57.409Z,5.95
2018-08-20T10:35:26.801Z,6.87
2018-08-20T10:37:56.235Z,5.90
2018-08-20T10:40:26.610Z,6.17
2018-08-20T10:42:55.985Z,5.70
2018-08-20T10:45:30.526Z,5.00
2018-08-20T10:47:59.881Z,5.85
2018-08-20T10:50:29.421Z,5.15
2018-08-20T10:52:58.767Z,5.45
2018-08-20T10:55:27.944Z,5.50
2018-08-20T10:57:57.278Z,5.90
2018-08-20T11:00:43.442Z,5.40
2018-08-20T11:03:13.798Z,5.40
2018-08-20T11:05:43.121Z,5.65
2018-08-20T11:08:12.217Z,5.28
2018-08-20T11:10:51.193Z,5.75
2018-08-20T11:13:20.469Z,5.12
2018-08-20T11:15:49.889Z,5.58
2018-08-20T11:18:19.302Z,5.20
2018-08-20T11:20:53.669Z,4.90
2018-08-20T11:23:23.057Z,4.47
2018-08-20T11:25:52.477Z,5.12
2018-08-20T11:28:22.046Z,5.33
2018-08-20T11:30:51.410Z,4.67
2018-08-20T11:33:20.865Z,4.85
2018-08-20T11:35:50.333Z,4.92
2018-08-20T11:38:19.739Z,5.60
2018-08-20T11:41:01.405Z,5.58
2018-08-20T11:43:30.482Z,4.67
2018-08-20T11:45:59.929Z,4.90
2018-08-20T11:48:29.421Z,5.03
2018-08-20T11:51:00.876Z,4.50
2018-08-20T11:53:30.310Z,4.40
2018-08-20T11:55:59.729Z,4.83
2018-08-20T11:58:29.104Z,5.00
2018-08-20T12:01:09.733Z,5.05
2018-08-20T12:03:39.145Z,6.00
2018-08-20T12:06:09.638Z,5.58
2018-08-20T12:08:39.600Z,4.92
2018-08-20T12:11:39.399Z,5.37
2018-08-20T12:14:08.540Z,5.17
2018-08-20T12:16:38.041Z,4.83
2018-08-20T12:19:08.163Z,5.47
2018-08-20T12:21:40.949Z,4.65
2018-08-20T12:24:10.361Z,5.05
2018-08-20T12:26:39.718Z,5.17
2018-08-20T12:29:09.106Z,5.12
2018-08-20T12:31:38.629Z,5.70
2018-08-20T12:34:07.981Z,4.85
2018-08-20T12:36:37.870Z,4.62
2018-08-20T12:39:08.555Z,4.85
2018-08-20T12:41:37.965Z,4.67
2018-08-20T12:44:07.613Z,4.67
2018-08-20T12:46:37.005Z,4.70
2018-08-20T12:49:06.418Z,5.33
2018-08-20T12:51:35.867Z,4.95
2018-08-20T12:54:05.270Z,4.42
2018-08-20T12:56:34.718Z,4.97
2018-08-20T12:59:04.049Z,5.10
2018-08-20T13:01:33.545Z,4.65
2018-08-20T13:04:02.934Z,4.10
2018-08-20T13:06:32.397Z,5.22
2018-08-20T13:09:01.934Z,5.22
2018-08-20T13:11:31.312Z,4.40
2018-08-20T13:14:00.768Z,5.12
2018-08-20T13:16:30.169Z,4.62
2018-08-20T13:18:59.634Z,4.70
2018-08-20T13:21:29.025Z,5.05
2018-08-20T13:23:58.393Z,4.67
2018-08-20T13:26:27.745Z,4.60
2018-08-20T13:28:57.233Z,4.80
2018-08-20T13:31:26.838Z,4.72
2018-08-20T13:33:56.310Z,4.53
2018-08-20T13:36:25.877Z,4.75
2018-08-20T13:38:55.215Z,5.58
2018-08-20T13:41:24.773Z,5.40
2018-08-20T13:43:53.925Z,3.60
2018-08-20T13:46:23.218Z,4.80
2018-08-20T13:48:52.609Z,4.60
2018-08-20T13:51:21.801Z,4.33
2018-08-20T13:53:50.930Z,4.65
2018-08-20T13:56:19.783Z,4.05
2018-08-20T13:58:49.068Z,4.10
2018-08-20T14:01:18.172Z,3.75
2018-08-20T14:03:47.286Z,3.65
2018-08-20T14:06:16.386Z,3.72
2018-08-20T14:08:45.505Z,3.85
2018-08-20T14:11:14.645Z,3.75
2018-08-20T14:13:43.804Z,3.25
2018-08-20T14:16:12.956Z,3.58
2018-08-20T14:18:42.105Z,3.98
2018-08-20T14:21:13.154Z,3.75
2018-08-20T14:23:44.057Z,4.25
2018-08-20T14:26:12.928Z,4.00
2018-08-20T14:28:42.494Z,4.22
2018-08-20T14:31:11.833Z,4.12
2018-08-20T14:33:41.218Z,4.00
2018-08-20T14:36:10.697Z,3.83
2018-08-20T14:38:40.061Z,3.87
2018-08-20T14:41:09.561Z,3.70
2018-08-20T14:43:38.965Z,3.70
2018-08-20T14:46:13.587Z,3.75
2018-08-20T14:48:43.129Z,3.80
2018-08-20T14:51:12.695Z,3.45
2018-08-20T14:53:42.106Z,3.50
2018-08-20T14:56:11.649Z,3.60
2018-08-20T14:58:41.101Z,3.05
2018-08-20T15:01:10.529Z,2.90
2018-08-20T15:03:39.803Z,3.40
2018-08-20T15:06:09.168Z,3.17
2018-08-20T15:08:39.949Z,3.00
2018-08-20T15:11:09.454Z,3.42
2018-08-20T15:13:38.837Z,2.85
2018-08-20T15:16:08.458Z,2.60
2018-08-20T15:18:37.849Z,2.90
2018-08-20T15:21:07.253Z,2.80
2018-08-20T15:23:36.737Z,2.90
2018-08-20T15:26:06.209Z,2.33
2018-08-20T15:28:35.308Z,2.90
2018-08-20T15:31:04.749Z,2.77
2018-08-20T15:33:34.689Z,2.62
2018-08-20T15:36:04.073Z,2.77
2018-08-20T15:38:33.406Z,2.87
2018-08-20T15:41:02.845Z,2.72
2018-08-20T15:43:32.266Z,2.80
2018-08-20T15:46:01.590Z,2.70
2018-08-20T15:48:30.985Z,3.27
2018-08-20T15:51:00.490Z,2.85
2018-08-20T15:53:29.902Z,3.42
2018-08-20T15:55:58.909Z,3.00
2018-08-20T15:58:28.250Z,3.27
2018-08-20T16:00:57.310Z,3.58
2018-08-20T16:03:26.666Z,3.70
2018-08-20T16:05:56.057Z,3.87
2018-08-20T16:08:25.417Z,3.77
2018-08-20T16:10:58.293Z,3.25
2018-08-20T16:13:27.729Z,3.35
2018-08-20T16:15:57.061Z,4.15
2018-08-20T16:18:26.436Z,3.30
2018-08-20T16:21:08.509Z,3.80
2018-08-20T16:23:37.979Z,3.37
2018-08-20T16:26:07.506Z,3.50
2018-08-20T16:28:36.961Z,3.42
2018-08-20T16:31:10.446Z,4.10
2018-08-20T16:33:39.816Z,3.60
2018-08-20T16:36:08.958Z,4.12
2018-08-20T16:38:38.357Z,3.92
2018-08-20T16:41:08.849Z,3.87
2018-08-20T16:43:38.254Z,4.10
2018-08-20T16:46:07.577Z,4.45
2018-08-20T16:48:36.940Z,4.75
2018-08-20T16:51:09.722Z,4.20
2018-08-20T16:53:39.050Z,4.50
2018-08-20T16:56:08.184Z,4.70
2018-08-20T16:58:37.340Z,4.70
2018-08-20T17:01:16.337Z,5.00
2018-08-20T17:03:45.681Z,4.53
2018-08-20T17:06:15.073Z,5.15
2018-08-20T17:08:45.025Z,4.78
2018-08-20T17:11:15.164Z,5.25
2018-08-20T17:13:44.532Z,4.58
2018-08-20T17:16:15.418Z,4.62
2018-08-20T17:18:44.757Z,4.70
2018-08-20T17:21:14.261Z,4.80
2018-08-20T17:23:43.573Z,4.47
2018-08-20T17:26:12.911Z,5.12
2018-08-20T17:28:42.448Z,4.28
2018-08-20T17:31:25.114Z,4.62
2018-08-20T17:33:54.470Z,4.45
2018-08-20T17:36:23.817Z,4.60
2018-08-20T17:38:52.865Z,4.83
2018-08-20T17:41:35.154Z,5.03
2018-08-20T17:44:04.311Z,4.25
2018-08-20T17:46:33.613Z,3.45
2018-08-20T17:49:03.002Z,3.95
2018-08-20T17:51:32.481Z,4.37
2018-08-20T17:54:01.837Z,4.17
2018-08-20T17:56:31.238Z,3.98
2018-08-20T17:59:06.751Z,4.28
2018-08-20T18:01:37.481Z,4.20
2018-08-20T18:04:07.135Z,4.05
2018-08-20T18:06:49.838Z,3.58
2018-08-20T18:09:19.266Z,4.03
2018-08-20T18:11:53.851Z,4.00
2018-08-20T18:14:24.374Z,4.03
2018-08-20T18:16:53.797Z,4.25
2018-08-20T18:19:23.185Z,4.15
2018-08-20T18:21:54.625Z,4.03
2018-08-20T18:24:24.025Z,4.10
2018-08-20T18:26:56.209Z,4.33
2018-08-20T18:29:25.558Z,3.92
2018-08-20T18:31:58.636Z,4.12
2018-08-20T18:34:27.941Z,4.10
2018-08-20T18:36:57.337Z,4.22
2018-08-20T18:39:26.676Z,4.50
2018-08-20T18:42:03.767Z,4.53
2018-08-20T18:44:33.182Z,4.03
2018-08-20T18:47:02.613Z,4.12
2018-08-20T18:49:32.098Z,4.17
2018-08-20T18:52:12.128Z,4.03
2018-08-20T18:54:49.813Z,4.25
2018-08-20T18:57:25.986Z,4.10
2018-08-20T18:59:57.726Z,4.20
2018-08-20T19:02:45.406Z,4.20
2018-08-20T19:05:16.164Z,4.15
2018-08-20T19:07:45.693Z,3.80
2018-08-20T19:10:21.330Z,4.08
2018-08-20T19:12:50.697Z,4.08
2018-08-20T19:15:40.455Z,4.22
2018-08-20T19:18:12.434Z,3.83
2018-08-20T19:20:45.878Z,4.33
2018-08-20T19:23:15.278Z,4.07
2018-08-20T19:25:44.653Z,4.40
2018-08-20T19:28:14.745Z,4.00
2018-08-20T19:30:53.861Z,4.17
2018-08-20T19:33:23.237Z,4.40
2018-08-20T19:35:53.406Z,4.50
2018-08-20T19:38:22.908Z,3.90
2018-08-20T19:41:03.752Z,4.63
2018-08-20T19:43:37.717Z,4.47
2018-08-20T19:46:07.158Z,3.90
2018-08-20T19:48:36.213Z,4.13
2018-08-20T19:51:10.741Z,4.27
2018-08-20T19:53:40.181Z,4.33
2018-08-20T19:56:14.170Z,4.30
2018-08-20T19:58:44.758Z,4.53
2018-08-20T20:01:49.957Z,4.77
2018-08-20T20:04:19.418Z,4.40
2018-08-20T20:06:48.781Z,4.37
2018-08-20T20:09:18.166Z,4.40
2018-08-20T20:11:59.941Z,4.80
2018-08-20T20:14:34.229Z,4.43
2018-08-20T20:17:03.774Z,4.47
2018-08-20T20:19:33.139Z,4.10
2018-08-20T20:22:17.471Z,4.60
2018-08-20T20:24:46.933Z,4.87
2018-08-20T20:27:16.449Z,4.70
2018-08-20T20:29:45.866Z,5.13
2018-08-20T20:32:22.534Z,5.37
2018-08-20T20:34:52.055Z,4.40
2018-08-20T20:37:21.502Z,4.40
2018-08-20T20:39:55.960Z,5.03
2018-08-20T20:42:31.625Z,4.93
2018-08-20T20:45:01.037Z,5.40
2018-08-20T20:47:30.550Z,5.27
2018-08-20T20:49:59.904Z,4.77
2018-08-20T20:52:44.716Z,5.30
2018-08-20T20:55:14.161Z,5.37
2018-08-20T20:57:43.599Z,5.40
2018-08-20T21:00:12.966Z,5.53
2018-08-20T21:02:42.330Z,5.30
2018-08-20T21:05:12.505Z,5.47
2018-08-20T21:07:41.887Z,5.23
2018-08-20T21:10:11.304Z,6.10
2018-08-20T21:12:40.640Z,5.67
2018-08-20T21:15:10.169Z,5.80
2018-08-20T21:17:39.572Z,5.47
2018-08-20T21:20:08.953Z,5.43
2018-08-20T21:22:39.053Z,4.90
2018-08-20T21:25:09.647Z,5.97
2018-08-20T21:27:39.205Z,5.60
2018-08-20T21:30:08.608Z,5.77
2018-08-20T21:32:38.121Z,6.23
2018-08-20T21:35:07.434Z,5.80
2018-08-20T21:37:36.803Z,6.07
2018-08-20T21:40:06.202Z,5.63
2018-08-20T21:42:41.661Z,5.90
2018-08-20T21:45:11.422Z,6.37
2018-08-20T21:47:40.761Z,6.17
2018-08-20T21:50:10.151Z,6.00
2018-08-20T21:52:39.498Z,5.73
2018-08-20T21:55:08.947Z,5.60
2018-08-20T21:57:42.333Z,5.60
2018-08-20T22:00:16.618Z,5.60
2018-08-20T22:02:49.157Z,5.93
2018-08-20T22:05:18.529Z,5.97
2018-08-20T22:07:48.041Z,6.43
2018-08-20T22:10:17.449Z,6.17
2018-08-20T22:12:46.729Z,6.90
2018-08-20T22:15:16.141Z,6.40
2018-08-20T22:17:45.597Z,5.60
2018-08-20T22:20:15.131Z,6.53
2018-08-20T22:22:44.492Z,6.27
2018-08-20T22:25:16.368Z,5.90
2018-08-20T22:27:50.765Z,6.63
2018-08-20T22:30:20.143Z,5.97
2018-08-20T22:32:49.486Z,6.37
2018-08-20T22:35:24.681Z,5.97
2018-08-20T22:37:54.197Z,6.83
2018-08-20T22:40:23.847Z,7.33
2018-08-20T22:42:57.896Z,6.73
2018-08-20T22:45:27.330Z,6.87
2018-08-20T22:47:56.810Z,7.07
2018-08-20T22:50:34.309Z,6.93
2018-08-20T22:53:03.721Z,6.70
2018-08-20T22:55:33.166Z,6.70
2018-08-20T22:58:10.308Z,6.43
2018-08-20T23:00:40.745Z,6.93
2018-08-20T23:03:10.138Z,6.57
2018-08-20T23:05:39.266Z,6.03
2018-08-20T23:08:19.905Z,7.33
2018-08-20T23:10:50.157Z,6.87
2018-08-20T23:13:20.404Z,7.33
2018-08-20T23:15:49.688Z,7.23
2018-08-20T23:18:19.034Z,6.80
2018-08-20T23:20:49.562Z,7.17
2018-08-20T23:23:37.581Z,6.40
2018-08-20T23:26:09.449Z,7.67
2018-08-20T23:28:40.897Z,7.07
2018-08-20T23:31:29.213Z,6.80
2018-08-20T23:33:58.625Z,7.00
2018-08-20T23:36:28.029Z,7.70
2018-08-20T23:38:57.444Z,7.27
2018-08-20T23:41:26.874Z,6.70
2018-08-20T23:44:00.666Z,7.17
2018-08-20T23:46:48.751Z,7.67
2018-08-20T23:49:18.217Z,7.37
2018-08-20T23:52:02.543Z,7.20
2018-08-20T23:54:31.851Z,7.53
2018-08-20T23:57:01.182Z,6.97
2018-08-20T23:59:30.511Z,7.27
